sensor_id;sensor_type;location;lat;lon;timestamp;P1;durP1;ratioP1;P2;durP2;ratioP2
43857;SDS011;29507;51.284;5.758;2023-04-03T00:01:08;6.40;;;4.00;;
43857;SDS011;29507;51.284;5.758;2023-04-03T00:03:34;9.00;;;3.22;;
43857;SDS011;29507;51.284;5.758;2023-04-03T00:05:59;7.25;;;3.75;;
43857;SDS011;29507;51.284;5.758;2023-04-03T00:08:26;14.38;;;5.60;;
43857;SDS011;29507;51.284;5.758;2023-04-03T00:10:51;8.48;;;3.90;;
43857;SDS011;29507;51.284;5.758;2023-04-03T00:13:17;8.68;;;4.22;;
43857;SDS011;29507;51.284;5.758;2023-04-03T00:15:43;9.75;;;3.72;;
43857;SDS011;29507;51.284;5.758;2023-04-03T00:18:09;6.88;;;3.97;;
43857;SDS011;29507;51.284;5.758;2023-04-03T00:20:35;7.00;;;3.90;;
43857;SDS011;29507;51.284;5.758;2023-04-03T00:23:01;6.97;;;3.70;;
43857;SDS011;29507;51.284;5.758;2023-04-03T00:25:27;7.72;;;4.38;;
43857;SDS011;29507;51.284;5.758;2023-04-03T00:27:52;9.73;;;4.53;;
43857;SDS011;29507;51.284;5.758;2023-04-03T00:30:19;7.63;;;4.13;;
43857;SDS011;29507;51.284;5.758;2023-04-03T00:32:47;7.30;;;4.57;;
43857;SDS011;29507;51.284;5.758;2023-04-03T00:35:13;6.70;;;3.55;;
43857;SDS011;29507;51.284;5.758;2023-04-03T00:37:40;8.38;;;4.30;;
43857;SDS011;29507;51.284;5.758;2023-04-03T00:40:07;8.60;;;4.30;;
43857;SDS011;29507;51.284;5.758;2023-04-03T00:42:35;9.75;;;4.05;;
43857;SDS011;29507;51.284;5.758;2023-04-03T00:47:28;10.00;;;4.65;;
43857;SDS011;29507;51.284;5.758;2023-04-03T00:49:55;6.05;;;3.72;;
43857;SDS011;29507;51.284;5.758;2023-04-03T00:52:23;5.85;;;4.10;;
43857;SDS011;29507;51.284;5.758;2023-04-03T00:54:54;6.95;;;4.50;;
43857;SDS011;29507;51.284;5.758;2023-04-03T00:57:24;8.68;;;4.07;;
43857;SDS011;29507;51.284;5.758;2023-04-03T00:59:52;7.55;;;3.83;;
43857;SDS011;29507;51.284;5.758;2023-04-03T01:02:22;6.65;;;3.75;;
43857;SDS011;29507;51.284;5.758;2023-04-03T01:04:48;10.18;;;4.00;;
43857;SDS011;29507;51.284;5.758;2023-04-03T01:07:21;6.05;;;3.90;;
43857;SDS011;29507;51.284;5.758;2023-04-03T01:09:52;7.15;;;4.10;;
43857;SDS011;29507;51.284;5.758;2023-04-03T01:12:25;6.68;;;4.07;;
43857;SDS011;29507;51.284;5.758;2023-04-03T01:14:52;9.18;;;3.85;;
43857;SDS011;29507;51.284;5.758;2023-04-03T01:22:59;8.27;;;4.20;;
43857;SDS011;29507;51.284;5.758;2023-04-03T01:25:46;7.60;;;4.30;;
43857;SDS011;29507;51.284;5.758;2023-04-03T01:28:18;7.97;;;4.25;;
43857;SDS011;29507;51.284;5.758;2023-04-03T01:33:43;7.90;;;4.88;;
43857;SDS011;29507;51.284;5.758;2023-04-03T01:36:09;9.70;;;5.35;;
43857;SDS011;29507;51.284;5.758;2023-04-03T01:38:38;10.80;;;5.88;;
43857;SDS011;29507;51.284;5.758;2023-04-03T01:41:03;9.20;;;5.22;;
43857;SDS011;29507;51.284;5.758;2023-04-03T01:43:29;12.73;;;6.15;;
43857;SDS011;29507;51.284;5.758;2023-04-03T01:45:55;8.75;;;5.72;;
43857;SDS011;29507;51.284;5.758;2023-04-03T01:48:21;12.63;;;5.82;;
43857;SDS011;29507;51.284;5.758;2023-04-03T01:50:46;12.40;;;5.63;;
43857;SDS011;29507;51.284;5.758;2023-04-03T01:53:12;14.57;;;6.40;;
43857;SDS011;29507;51.284;5.758;2023-04-03T01:55:38;13.00;;;5.72;;
43857;SDS011;29507;51.284;5.758;2023-04-03T01:58:04;8.57;;;5.82;;
43857;SDS011;29507;51.284;5.758;2023-04-03T02:00:30;6.00;;;4.45;;
43857;SDS011;29507;51.284;5.758;2023-04-03T02:02:55;14.50;;;5.38;;
43857;SDS011;29507;51.284;5.758;2023-04-03T02:05:21;11.73;;;5.35;;
43857;SDS011;29507;51.284;5.758;2023-04-03T02:07:47;12.68;;;5.85;;
43857;SDS011;29507;51.284;5.758;2023-04-03T02:10:13;10.68;;;5.78;;
43857;SDS011;29507;51.284;5.758;2023-04-03T02:12:40;18.42;;;5.30;;
43857;SDS011;29507;51.284;5.758;2023-04-03T02:15:06;10.93;;;5.38;;
43857;SDS011;29507;51.284;5.758;2023-04-03T02:17:32;15.75;;;5.43;;
43857;SDS011;29507;51.284;5.758;2023-04-03T02:19:58;11.88;;;5.80;;
43857;SDS011;29507;51.284;5.758;2023-04-03T02:22:23;11.82;;;5.40;;
43857;SDS011;29507;51.284;5.758;2023-04-03T02:24:49;8.45;;;5.00;;
43857;SDS011;29507;51.284;5.758;2023-04-03T02:27:14;10.60;;;5.10;;
43857;SDS011;29507;51.284;5.758;2023-04-03T02:29:40;9.48;;;5.20;;
43857;SDS011;29507;51.284;5.758;2023-04-03T02:32:06;8.23;;;5.13;;
43857;SDS011;29507;51.284;5.758;2023-04-03T02:34:31;13.65;;;5.93;;
43857;SDS011;29507;51.284;5.758;2023-04-03T02:36:57;10.48;;;5.28;;
43857;SDS011;29507;51.284;5.758;2023-04-03T02:39:23;8.55;;;5.22;;
43857;SDS011;29507;51.284;5.758;2023-04-03T02:41:48;11.40;;;5.28;;
43857;SDS011;29507;51.284;5.758;2023-04-03T02:44:14;11.82;;;5.28;;
43857;SDS011;29507;51.284;5.758;2023-04-03T02:46:40;8.98;;;5.57;;
43857;SDS011;29507;51.284;5.758;2023-04-03T02:49:05;9.23;;;5.28;;
43857;SDS011;29507;51.284;5.758;2023-04-03T02:51:31;15.38;;;6.35;;
43857;SDS011;29507;51.284;5.758;2023-04-03T02:53:57;10.80;;;5.32;;
43857;SDS011;29507;51.284;5.758;2023-04-03T02:56:22;11.75;;;6.57;;
43857;SDS011;29507;51.284;5.758;2023-04-03T02:58:48;10.32;;;5.82;;
43857;SDS011;29507;51.284;5.758;2023-04-03T03:01:14;12.38;;;5.82;;
43857;SDS011;29507;51.284;5.758;2023-04-03T03:03:40;9.75;;;5.65;;
43857;SDS011;29507;51.284;5.758;2023-04-03T03:06:07;9.55;;;5.47;;
43857;SDS011;29507;51.284;5.758;2023-04-03T03:08:34;10.70;;;5.75;;
43857;SDS011;29507;51.284;5.758;2023-04-03T03:11:00;12.32;;;6.13;;
43857;SDS011;29507;51.284;5.758;2023-04-03T03:13:26;10.05;;;6.18;;
43857;SDS011;29507;51.284;5.758;2023-04-03T03:15:51;11.68;;;5.55;;
43857;SDS011;29507;51.284;5.758;2023-04-03T03:18:17;10.23;;;6.15;;
43857;SDS011;29507;51.284;5.758;2023-04-03T03:20:42;10.07;;;5.18;;
43857;SDS011;29507;51.284;5.758;2023-04-03T03:23:08;8.88;;;5.72;;
43857;SDS011;29507;51.284;5.758;2023-04-03T03:25:37;8.07;;;4.75;;
43857;SDS011;29507;51.284;5.758;2023-04-03T03:28:04;8.77;;;5.15;;
43857;SDS011;29507;51.284;5.758;2023-04-03T03:30:29;11.05;;;5.28;;
43857;SDS011;29507;51.284;5.758;2023-04-03T03:32:55;9.32;;;4.85;;
43857;SDS011;29507;51.284;5.758;2023-04-03T03:35:21;8.85;;;4.32;;
43857;SDS011;29507;51.284;5.758;2023-04-03T03:37:47;10.20;;;4.97;;
43857;SDS011;29507;51.284;5.758;2023-04-03T03:40:13;10.07;;;5.07;;
43857;SDS011;29507;51.284;5.758;2023-04-03T03:42:39;7.90;;;3.78;;
43857;SDS011;29507;51.284;5.758;2023-04-03T03:45:04;8.18;;;4.35;;
43857;SDS011;29507;51.284;5.758;2023-04-03T03:47:31;8.88;;;4.75;;
43857;SDS011;29507;51.284;5.758;2023-04-03T03:49:56;8.82;;;4.60;;
43857;SDS011;29507;51.284;5.758;2023-04-03T03:52:22;8.88;;;4.40;;
43857;SDS011;29507;51.284;5.758;2023-04-03T03:54:48;9.80;;;4.47;;
43857;SDS011;29507;51.284;5.758;2023-04-03T03:57:13;10.02;;;4.32;;
43857;SDS011;29507;51.284;5.758;2023-04-03T03:59:39;9.00;;;4.45;;
43857;SDS011;29507;51.284;5.758;2023-04-03T04:02:06;11.23;;;5.22;;
43857;SDS011;29507;51.284;5.758;2023-04-03T04:04:32;8.13;;;4.60;;
43857;SDS011;29507;51.284;5.758;2023-04-03T04:06:58;9.65;;;4.53;;
43857;SDS011;29507;51.284;5.758;2023-04-03T04:09:25;10.57;;;4.28;;
43857;SDS011;29507;51.284;5.758;2023-04-03T04:11:51;14.45;;;5.10;;
43857;SDS011;29507;51.284;5.758;2023-04-03T04:14:17;10.02;;;4.50;;
43857;SDS011;29507;51.284;5.758;2023-04-03T04:16:42;8.85;;;4.28;;
43857;SDS011;29507;51.284;5.758;2023-04-03T04:19:08;10.60;;;4.53;;
43857;SDS011;29507;51.284;5.758;2023-04-03T04:21:34;9.38;;;4.03;;
43857;SDS011;29507;51.284;5.758;2023-04-03T04:24:00;6.50;;;3.75;;
43857;SDS011;29507;51.284;5.758;2023-04-03T04:26:26;10.00;;;3.78;;
43857;SDS011;29507;51.284;5.758;2023-04-03T04:28:51;8.23;;;3.90;;
43857;SDS011;29507;51.284;5.758;2023-04-03T04:31:17;11.70;;;4.00;;
43857;SDS011;29507;51.284;5.758;2023-04-03T04:33:42;9.15;;;3.58;;
43857;SDS011;29507;51.284;5.758;2023-04-03T04:36:08;7.47;;;3.50;;
43857;SDS011;29507;51.284;5.758;2023-04-03T04:38:34;10.65;;;3.55;;
43857;SDS011;29507;51.284;5.758;2023-04-03T04:41:00;5.90;;;3.72;;
43857;SDS011;29507;51.284;5.758;2023-04-03T04:43:26;8.85;;;4.22;;
43857;SDS011;29507;51.284;5.758;2023-04-03T04:46:01;11.88;;;3.20;;
43857;SDS011;29507;51.284;5.758;2023-04-03T04:48:32;7.50;;;3.55;;
43857;SDS011;29507;51.284;5.758;2023-04-03T04:50:58;7.47;;;3.42;;
43857;SDS011;29507;51.284;5.758;2023-04-03T04:53:23;8.27;;;3.67;;
43857;SDS011;29507;51.284;5.758;2023-04-03T04:55:49;8.80;;;3.15;;
43857;SDS011;29507;51.284;5.758;2023-04-03T04:58:14;8.63;;;3.35;;
43857;SDS011;29507;51.284;5.758;2023-04-03T05:00:41;10.75;;;3.53;;
43857;SDS011;29507;51.284;5.758;2023-04-03T05:03:06;5.93;;;3.17;;
43857;SDS011;29507;51.284;5.758;2023-04-03T05:05:32;6.97;;;3.03;;
43857;SDS011;29507;51.284;5.758;2023-04-03T05:07:58;7.63;;;3.20;;
43857;SDS011;29507;51.284;5.758;2023-04-03T05:10:23;8.35;;;2.80;;
43857;SDS011;29507;51.284;5.758;2023-04-03T05:12:49;10.65;;;2.90;;
43857;SDS011;29507;51.284;5.758;2023-04-03T05:15:14;8.90;;;3.60;;
43857;SDS011;29507;51.284;5.758;2023-04-03T05:17:40;8.75;;;3.10;;
43857;SDS011;29507;51.284;5.758;2023-04-03T05:20:06;5.35;;;2.75;;
43857;SDS011;29507;51.284;5.758;2023-04-03T05:22:31;10.68;;;2.72;;
43857;SDS011;29507;51.284;5.758;2023-04-03T05:24:57;8.32;;;3.17;;
43857;SDS011;29507;51.284;5.758;2023-04-03T05:27:23;5.18;;;2.65;;
43857;SDS011;29507;51.284;5.758;2023-04-03T05:29:49;6.07;;;2.80;;
43857;SDS011;29507;51.284;5.758;2023-04-03T05:32:17;7.10;;;2.60;;
43857;SDS011;29507;51.284;5.758;2023-04-03T05:34:42;8.45;;;2.35;;
43857;SDS011;29507;51.284;5.758;2023-04-03T05:37:08;10.18;;;3.17;;
43857;SDS011;29507;51.284;5.758;2023-04-03T05:39:34;8.57;;;2.78;;
43857;SDS011;29507;51.284;5.758;2023-04-03T05:42:00;8.85;;;2.17;;
43857;SDS011;29507;51.284;5.758;2023-04-03T05:44:26;4.95;;;2.28;;
43857;SDS011;29507;51.284;5.758;2023-04-03T05:46:52;14.73;;;2.85;;
43857;SDS011;29507;51.284;5.758;2023-04-03T05:49:18;6.22;;;2.33;;
43857;SDS011;29507;51.284;5.758;2023-04-03T05:51:43;7.68;;;2.28;;
43857;SDS011;29507;51.284;5.758;2023-04-03T05:54:20;12.77;;;2.83;;
43857;SDS011;29507;51.284;5.758;2023-04-03T05:56:49;4.85;;;2.88;;
43857;SDS011;29507;51.284;5.758;2023-04-03T05:59:16;5.85;;;2.03;;
43857;SDS011;29507;51.284;5.758;2023-04-03T06:01:42;5.57;;;2.80;;
43857;SDS011;29507;51.284;5.758;2023-04-03T06:04:08;11.35;;;2.22;;
43857;SDS011;29507;51.284;5.758;2023-04-03T06:06:47;7.97;;;2.65;;
43857;SDS011;29507;51.284;5.758;2023-04-03T06:09:16;10.45;;;3.03;;
43857;SDS011;29507;51.284;5.758;2023-04-03T06:11:43;5.75;;;1.83;;
43857;SDS011;29507;51.284;5.758;2023-04-03T06:14:09;5.85;;;2.20;;
43857;SDS011;29507;51.284;5.758;2023-04-03T06:16:35;8.48;;;2.42;;
43857;SDS011;29507;51.284;5.758;2023-04-03T06:19:02;5.18;;;2.00;;
43857;SDS011;29507;51.284;5.758;2023-04-03T06:21:27;5.28;;;1.50;;
43857;SDS011;29507;51.284;5.758;2023-04-03T06:23:53;9.07;;;2.33;;
43857;SDS011;29507;51.284;5.758;2023-04-03T06:26:18;3.72;;;1.73;;
43857;SDS011;29507;51.284;5.758;2023-04-03T06:28:45;3.85;;;1.63;;
43857;SDS011;29507;51.284;5.758;2023-04-03T06:31:11;7.47;;;1.67;;
43857;SDS011;29507;51.284;5.758;2023-04-03T06:33:37;5.28;;;1.55;;
43857;SDS011;29507;51.284;5.758;2023-04-03T06:36:05;5.80;;;1.73;;
43857;SDS011;29507;51.284;5.758;2023-04-03T06:40:58;4.35;;;1.80;;
43857;SDS011;29507;51.284;5.758;2023-04-03T06:43:24;3.85;;;1.65;;
43857;SDS011;29507;51.284;5.758;2023-04-03T06:45:50;6.43;;;1.75;;
43857;SDS011;29507;51.284;5.758;2023-04-03T06:48:15;8.05;;;2.08;;
43857;SDS011;29507;51.284;5.758;2023-04-03T06:50:41;6.25;;;1.85;;
43857;SDS011;29507;51.284;5.758;2023-04-03T06:53:07;4.22;;;1.73;;
43857;SDS011;29507;51.284;5.758;2023-04-03T06:55:33;8.07;;;1.73;;
43857;SDS011;29507;51.284;5.758;2023-04-03T06:57:59;6.18;;;1.77;;
43857;SDS011;29507;51.284;5.758;2023-04-03T07:00:25;5.65;;;1.38;;
43857;SDS011;29507;51.284;5.758;2023-04-03T07:02:51;8.70;;;1.92;;
43857;SDS011;29507;51.284;5.758;2023-04-03T07:05:17;6.78;;;1.63;;
43857;SDS011;29507;51.284;5.758;2023-04-03T07:07:43;3.75;;;1.70;;
43857;SDS011;29507;51.284;5.758;2023-04-03T07:10:09;4.43;;;1.50;;
43857;SDS011;29507;51.284;5.758;2023-04-03T07:12:35;7.75;;;1.70;;
43857;SDS011;29507;51.284;5.758;2023-04-03T07:15:02;5.50;;;1.50;;
43857;SDS011;29507;51.284;5.758;2023-04-03T07:17:29;7.13;;;1.73;;
43857;SDS011;29507;51.284;5.758;2023-04-03T07:19:55;5.38;;;2.22;;
43857;SDS011;29507;51.284;5.758;2023-04-03T07:22:21;4.25;;;1.30;;
43857;SDS011;29507;51.284;5.758;2023-04-03T07:24:46;6.57;;;1.98;;
43857;SDS011;29507;51.284;5.758;2023-04-03T07:27:12;8.77;;;1.75;;
43857;SDS011;29507;51.284;5.758;2023-04-03T07:29:38;4.05;;;1.48;;
43857;SDS011;29507;51.284;5.758;2023-04-03T07:32:04;6.28;;;1.75;;
43857;SDS011;29507;51.284;5.758;2023-04-03T07:34:31;6.57;;;1.60;;
43857;SDS011;29507;51.284;5.758;2023-04-03T07:36:57;4.72;;;1.60;;
43857;SDS011;29507;51.284;5.758;2023-04-03T07:39:23;7.50;;;1.65;;
43857;SDS011;29507;51.284;5.758;2023-04-03T07:41:48;7.75;;;1.95;;
43857;SDS011;29507;51.284;5.758;2023-04-03T07:44:14;2.95;;;1.30;;
43857;SDS011;29507;51.284;5.758;2023-04-03T07:46:40;4.40;;;1.52;;
43857;SDS011;29507;51.284;5.758;2023-04-03T07:49:05;7.97;;;2.00;;
43857;SDS011;29507;51.284;5.758;2023-04-03T07:51:31;5.72;;;1.75;;
43857;SDS011;29507;51.284;5.758;2023-04-03T07:53:57;6.43;;;1.60;;
43857;SDS011;29507;51.284;5.758;2023-04-03T07:56:23;5.07;;;1.52;;
43857;SDS011;29507;51.284;5.758;2023-04-03T07:58:50;3.20;;;1.45;;
43857;SDS011;29507;51.284;5.758;2023-04-03T08:01:15;4.60;;;1.67;;
43857;SDS011;29507;51.284;5.758;2023-04-03T08:03:41;4.60;;;1.50;;
43857;SDS011;29507;51.284;5.758;2023-04-03T08:06:07;8.48;;;1.60;;
43857;SDS011;29507;51.284;5.758;2023-04-03T08:08:33;7.65;;;1.83;;
43857;SDS011;29507;51.284;5.758;2023-04-03T08:11:00;4.00;;;1.20;;
43857;SDS011;29507;51.284;5.758;2023-04-03T08:13:27;6.65;;;1.63;;
43857;SDS011;29507;51.284;5.758;2023-04-03T08:15:53;6.75;;;1.58;;
43857;SDS011;29507;51.284;5.758;2023-04-03T08:18:20;8.65;;;2.80;;
43857;SDS011;29507;51.284;5.758;2023-04-03T08:20:49;5.75;;;1.35;;
43857;SDS011;29507;51.284;5.758;2023-04-03T08:23:16;5.07;;;1.30;;
43857;SDS011;29507;51.284;5.758;2023-04-03T08:25:42;5.30;;;1.38;;
43857;SDS011;29507;51.284;5.758;2023-04-03T08:28:08;6.30;;;1.65;;
43857;SDS011;29507;51.284;5.758;2023-04-03T08:30:35;7.70;;;1.45;;
43857;SDS011;29507;51.284;5.758;2023-04-03T08:33:03;5.55;;;1.42;;
43857;SDS011;29507;51.284;5.758;2023-04-03T08:35:29;4.13;;;1.38;;
43857;SDS011;29507;51.284;5.758;2023-04-03T08:37:55;5.07;;;1.38;;
43857;SDS011;29507;51.284;5.758;2023-04-03T08:40:21;5.43;;;1.52;;
43857;SDS011;29507;51.284;5.758;2023-04-03T08:43:05;5.15;;;1.65;;
43857;SDS011;29507;51.284;5.758;2023-04-03T08:48:08;7.00;;;1.50;;
43857;SDS011;29507;51.284;5.758;2023-04-03T08:50:41;5.75;;;1.77;;
43857;SDS011;29507;51.284;5.758;2023-04-03T08:53:20;5.28;;;1.48;;
43857;SDS011;29507;51.284;5.758;2023-04-03T08:55:48;5.95;;;1.58;;
43857;SDS011;29507;51.284;5.758;2023-04-03T09:03:14;3.38;;;1.10;;
43857;SDS011;29507;51.284;5.758;2023-04-03T09:08:31;6.40;;;1.20;;
43857;SDS011;29507;51.284;5.758;2023-04-03T09:11:06;7.10;;;1.70;;
43857;SDS011;29507;51.284;5.758;2023-04-03T09:21:57;6.03;;;1.40;;
43857;SDS011;29507;51.284;5.758;2023-04-03T09:24:24;3.90;;;1.20;;
43857;SDS011;29507;51.284;5.758;2023-04-03T09:26:51;4.40;;;1.02;;
43857;SDS011;29507;51.284;5.758;2023-04-03T09:29:19;7.07;;;1.75;;
43857;SDS011;29507;51.284;5.758;2023-04-03T09:31:48;4.63;;;1.00;;
43857;SDS011;29507;51.284;5.758;2023-04-03T09:34:22;3.85;;;1.30;;
43857;SDS011;29507;51.284;5.758;2023-04-03T09:36:54;4.78;;;1.15;;
43857;SDS011;29507;51.284;5.758;2023-04-03T09:39:25;3.17;;;1.15;;
43857;SDS011;29507;51.284;5.758;2023-04-03T09:44:36;3.38;;;0.90;;
43857;SDS011;29507;51.284;5.758;2023-04-03T09:49:43;4.78;;;0.93;;
43857;SDS011;29507;51.284;5.758;2023-04-03T09:52:18;6.60;;;1.23;;
43857;SDS011;29507;51.284;5.758;2023-04-03T09:54:49;5.95;;;1.10;;
43857;SDS011;29507;51.284;5.758;2023-04-03T09:57:15;3.25;;;1.05;;
43857;SDS011;29507;51.284;5.758;2023-04-03T09:59:43;6.50;;;1.02;;
43857;SDS011;29507;51.284;5.758;2023-04-03T10:04:40;2.85;;;0.70;;
43857;SDS011;29507;51.284;5.758;2023-04-03T10:07:25;3.00;;;0.77;;
43857;SDS011;29507;51.284;5.758;2023-04-03T10:09:57;4.18;;;0.95;;
43857;SDS011;29507;51.284;5.758;2023-04-03T10:12:28;3.42;;;1.10;;
43857;SDS011;29507;51.284;5.758;2023-04-03T10:14:59;3.42;;;1.52;;
43857;SDS011;29507;51.284;5.758;2023-04-03T10:20:42;8.43;;;1.40;;
43857;SDS011;29507;51.284;5.758;2023-04-03T10:23:16;4.13;;;1.20;;
43857;SDS011;29507;51.284;5.758;2023-04-03T10:33:34;5.20;;;1.35;;
43857;SDS011;29507;51.284;5.758;2023-04-03T10:36:25;2.80;;;1.30;;
43857;SDS011;29507;51.284;5.758;2023-04-03T10:39:12;3.03;;;0.90;;
43857;SDS011;29507;51.284;5.758;2023-04-03T10:44:42;3.08;;;0.90;;
43857;SDS011;29507;51.284;5.758;2023-04-03T10:50:43;3.08;;;0.65;;
43857;SDS011;29507;51.284;5.758;2023-04-03T10:53:04;2.47;;;0.80;;
43857;SDS011;29507;51.284;5.758;2023-04-03T10:55:40;3.25;;;0.82;;
43857;SDS011;29507;51.284;5.758;2023-04-03T10:58:18;2.15;;;0.70;;
43857;SDS011;29507;51.284;5.758;2023-04-03T11:00:51;1.77;;;0.60;;
43857;SDS011;29507;51.284;5.758;2023-04-03T11:06:08;3.85;;;0.80;;
43857;SDS011;29507;51.284;5.758;2023-04-03T11:08:44;2.30;;;0.60;;
43857;SDS011;29507;51.284;5.758;2023-04-03T11:11:19;2.35;;;0.70;;
43857;SDS011;29507;51.284;5.758;2023-04-03T11:16:23;1.58;;;0.60;;
43857;SDS011;29507;51.284;5.758;2023-04-03T11:21:37;3.60;;;0.90;;
43857;SDS011;29507;51.284;5.758;2023-04-03T11:24:15;1.70;;;0.57;;
43857;SDS011;29507;51.284;5.758;2023-04-03T11:26:47;2.67;;;1.17;;
43857;SDS011;29507;51.284;5.758;2023-04-03T11:29:18;6.03;;;0.88;;
43857;SDS011;29507;51.284;5.758;2023-04-03T11:31:56;2.67;;;0.70;;
43857;SDS011;29507;51.284;5.758;2023-04-03T11:34:46;2.78;;;0.80;;
43857;SDS011;29507;51.284;5.758;2023-04-03T11:39:57;4.13;;;0.80;;
43857;SDS011;29507;51.284;5.758;2023-04-03T11:45:16;2.95;;;0.77;;
43857;SDS011;29507;51.284;5.758;2023-04-03T11:52:59;3.75;;;0.77;;
43857;SDS011;29507;51.284;5.758;2023-04-03T12:05:58;1.90;;;0.50;;
43857;SDS011;29507;51.284;5.758;2023-04-03T12:08:52;3.13;;;1.08;;
43857;SDS011;29507;51.284;5.758;2023-04-03T12:11:30;3.15;;;0.95;;
43857;SDS011;29507;51.284;5.758;2023-04-03T12:19:01;4.63;;;1.00;;
43857;SDS011;29507;51.284;5.758;2023-04-03T12:32:19;2.50;;;0.68;;
43857;SDS011;29507;51.284;5.758;2023-04-03T12:48:36;3.88;;;0.82;;
43857;SDS011;29507;51.284;5.758;2023-04-03T12:53:58;5.60;;;1.30;;
43857;SDS011;29507;51.284;5.758;2023-04-03T12:56:31;1.58;;;0.60;;
43857;SDS011;29507;51.284;5.758;2023-04-03T13:01:52;1.80;;;0.65;;
43857;SDS011;29507;51.284;5.758;2023-04-03T13:04:23;4.28;;;0.77;;
43857;SDS011;29507;51.284;5.758;2023-04-03T13:06:50;3.55;;;0.73;;
43857;SDS011;29507;51.284;5.758;2023-04-03T13:09:23;5.22;;;0.80;;
43857;SDS011;29507;51.284;5.758;2023-04-03T13:12:03;3.33;;;1.17;;
43857;SDS011;29507;51.284;5.758;2023-04-03T13:14:36;2.85;;;0.70;;
43857;SDS011;29507;51.284;5.758;2023-04-03T13:17:23;3.15;;;0.90;;
43857;SDS011;29507;51.284;5.758;2023-04-03T13:19:49;3.90;;;0.90;;
43857;SDS011;29507;51.284;5.758;2023-04-03T13:22:23;4.68;;;0.77;;
43857;SDS011;29507;51.284;5.758;2023-04-03T13:25:04;2.15;;;0.80;;
43857;SDS011;29507;51.284;5.758;2023-04-03T13:27:33;2.00;;;0.43;;
43857;SDS011;29507;51.284;5.758;2023-04-03T13:30:00;3.33;;;0.95;;
43857;SDS011;29507;51.284;5.758;2023-04-03T13:32:29;3.08;;;0.80;;
43857;SDS011;29507;51.284;5.758;2023-04-03T13:34:56;5.68;;;0.98;;
43857;SDS011;29507;51.284;5.758;2023-04-03T13:37:32;3.28;;;0.80;;
43857;SDS011;29507;51.284;5.758;2023-04-03T13:42:36;4.07;;;1.10;;
43857;SDS011;29507;51.284;5.758;2023-04-03T13:45:22;4.63;;;1.13;;
43857;SDS011;29507;51.284;5.758;2023-04-03T13:47:49;3.78;;;0.85;;
43857;SDS011;29507;51.284;5.758;2023-04-03T13:50:23;3.40;;;0.80;;
43857;SDS011;29507;51.284;5.758;2023-04-03T13:52:55;3.78;;;1.00;;
43857;SDS011;29507;51.284;5.758;2023-04-03T13:55:35;6.50;;;1.20;;
43857;SDS011;29507;51.284;5.758;2023-04-03T14:00:38;6.22;;;1.35;;
43857;SDS011;29507;51.284;5.758;2023-04-03T14:03:38;2.55;;;1.00;;
43857;SDS011;29507;51.284;5.758;2023-04-03T14:06:16;3.53;;;1.00;;
43857;SDS011;29507;51.284;5.758;2023-04-03T14:08:43;2.83;;;1.00;;
43857;SDS011;29507;51.284;5.758;2023-04-03T14:11:14;5.90;;;1.00;;
43857;SDS011;29507;51.284;5.758;2023-04-03T14:13:41;3.38;;;0.70;;
43857;SDS011;29507;51.284;5.758;2023-04-03T14:16:11;3.55;;;1.13;;
43857;SDS011;29507;51.284;5.758;2023-04-03T14:18:38;7.32;;;1.38;;
43857;SDS011;29507;51.284;5.758;2023-04-03T14:21:04;3.38;;;1.20;;
43857;SDS011;29507;51.284;5.758;2023-04-03T14:23:30;6.15;;;1.20;;
43857;SDS011;29507;51.284;5.758;2023-04-03T14:25:55;3.22;;;0.90;;
43857;SDS011;29507;51.284;5.758;2023-04-03T14:28:22;2.67;;;0.85;;
43857;SDS011;29507;51.284;5.758;2023-04-03T14:30:48;6.88;;;1.42;;
43857;SDS011;29507;51.284;5.758;2023-04-03T14:33:20;4.53;;;1.02;;
43857;SDS011;29507;51.284;5.758;2023-04-03T14:35:47;2.47;;;0.88;;
43857;SDS011;29507;51.284;5.758;2023-04-03T14:38:20;4.57;;;0.95;;
43857;SDS011;29507;51.284;5.758;2023-04-03T14:40:50;3.17;;;1.58;;
43857;SDS011;29507;51.284;5.758;2023-04-03T14:43:17;3.53;;;1.05;;
43857;SDS011;29507;51.284;5.758;2023-04-03T14:45:43;3.47;;;0.75;;
43857;SDS011;29507;51.284;5.758;2023-04-03T14:48:10;4.32;;;1.15;;
43857;SDS011;29507;51.284;5.758;2023-04-03T14:50:43;3.17;;;0.80;;
43857;SDS011;29507;51.284;5.758;2023-04-03T14:53:10;7.25;;;1.35;;
43857;SDS011;29507;51.284;5.758;2023-04-03T14:55:37;5.38;;;1.30;;
43857;SDS011;29507;51.284;5.758;2023-04-03T14:58:03;4.07;;;0.80;;
43857;SDS011;29507;51.284;5.758;2023-04-03T15:00:29;4.90;;;1.35;;
43857;SDS011;29507;51.284;5.758;2023-04-03T15:02:54;3.53;;;1.00;;
43857;SDS011;29507;51.284;5.758;2023-04-03T15:05:20;3.15;;;1.27;;
43857;SDS011;29507;51.284;5.758;2023-04-03T15:07:55;3.70;;;0.88;;
43857;SDS011;29507;51.284;5.758;2023-04-03T15:10:25;3.15;;;0.90;;
43857;SDS011;29507;51.284;5.758;2023-04-03T15:12:52;3.55;;;0.98;;
43857;SDS011;29507;51.284;5.758;2023-04-03T15:15:19;6.13;;;1.52;;
43857;SDS011;29507;51.284;5.758;2023-04-03T15:17:46;3.88;;;0.90;;
43857;SDS011;29507;51.284;5.758;2023-04-03T15:20:16;3.00;;;1.05;;
43857;SDS011;29507;51.284;5.758;2023-04-03T15:22:44;4.43;;;1.15;;
43857;SDS011;29507;51.284;5.758;2023-04-03T15:25:10;2.75;;;0.93;;
43857;SDS011;29507;51.284;5.758;2023-04-03T15:27:36;2.88;;;1.00;;
43857;SDS011;29507;51.284;5.758;2023-04-03T15:30:02;3.50;;;1.30;;
43857;SDS011;29507;51.284;5.758;2023-04-03T15:32:30;2.92;;;0.68;;
43857;SDS011;29507;51.284;5.758;2023-04-03T15:34:56;2.85;;;0.82;;
43857;SDS011;29507;51.284;5.758;2023-04-03T15:37:21;3.95;;;1.05;;
43857;SDS011;29507;51.284;5.758;2023-04-03T15:39:47;3.45;;;1.48;;
43857;SDS011;29507;51.284;5.758;2023-04-03T15:42:12;5.57;;;1.27;;
43857;SDS011;29507;51.284;5.758;2023-04-03T15:44:38;3.17;;;0.88;;
43857;SDS011;29507;51.284;5.758;2023-04-03T15:47:04;2.72;;;0.77;;
43857;SDS011;29507;51.284;5.758;2023-04-03T15:49:30;3.75;;;1.00;;
43857;SDS011;29507;51.284;5.758;2023-04-03T15:51:58;6.63;;;1.30;;
43857;SDS011;29507;51.284;5.758;2023-04-03T15:54:24;3.25;;;1.38;;
43857;SDS011;29507;51.284;5.758;2023-04-03T15:56:50;8.52;;;1.58;;
43857;SDS011;29507;51.284;5.758;2023-04-03T15:59:17;6.82;;;1.40;;
43857;SDS011;29507;51.284;5.758;2023-04-03T16:01:42;2.63;;;0.88;;
43857;SDS011;29507;51.284;5.758;2023-04-03T16:04:08;2.83;;;0.95;;
43857;SDS011;29507;51.284;5.758;2023-04-03T16:06:35;2.80;;;0.90;;
43857;SDS011;29507;51.284;5.758;2023-04-03T16:09:01;6.20;;;1.02;;
43857;SDS011;29507;51.284;5.758;2023-04-03T16:11:27;5.03;;;0.98;;
43857;SDS011;29507;51.284;5.758;2023-04-03T16:13:54;4.93;;;1.02;;
43857;SDS011;29507;51.284;5.758;2023-04-03T16:16:19;3.45;;;0.90;;
43857;SDS011;29507;51.284;5.758;2023-04-03T16:18:46;3.22;;;0.90;;
43857;SDS011;29507;51.284;5.758;2023-04-03T16:21:12;5.15;;;0.90;;
43857;SDS011;29507;51.284;5.758;2023-04-03T16:23:39;2.58;;;0.90;;
43857;SDS011;29507;51.284;5.758;2023-04-03T16:26:05;3.35;;;0.93;;
43857;SDS011;29507;51.284;5.758;2023-04-03T16:28:30;3.08;;;0.90;;
43857;SDS011;29507;51.284;5.758;2023-04-03T16:30:56;3.75;;;1.02;;
43857;SDS011;29507;51.284;5.758;2023-04-03T16:33:22;4.95;;;1.08;;
43857;SDS011;29507;51.284;5.758;2023-04-03T16:35:49;5.72;;;0.93;;
43857;SDS011;29507;51.284;5.758;2023-04-03T16:38:16;4.30;;;1.33;;
43857;SDS011;29507;51.284;5.758;2023-04-03T16:40:43;1.15;;;0.50;;
43857;SDS011;29507;51.284;5.758;2023-04-03T16:43:09;3.85;;;0.80;;
43857;SDS011;29507;51.284;5.758;2023-04-03T16:45:35;1.80;;;0.68;;
43857;SDS011;29507;51.284;5.758;2023-04-03T16:48:01;4.13;;;0.90;;
43857;SDS011;29507;51.284;5.758;2023-04-03T16:50:27;3.38;;;0.75;;
43857;SDS011;29507;51.284;5.758;2023-04-03T16:52:53;2.17;;;0.75;;
43857;SDS011;29507;51.284;5.758;2023-04-03T16:55:19;3.55;;;0.93;;
43857;SDS011;29507;51.284;5.758;2023-04-03T16:57:45;3.00;;;0.90;;